sensor_id;sensor_type;location;lat;lon;timestamp;temperature;humidity
54429;DHT22;40337;52.978;6.310;2024-01-30T00:01:42;7.40;99.90
54429;DHT22;40337;52.978;6.310;2024-01-30T00:04:07;7.40;99.90
54429;DHT22;40337;52.978;6.310;2024-01-30T00:06:33;7.30;99.90
54429;DHT22;40337;52.978;6.310;2024-01-30T00:08:58;7.30;99.90
54429;DHT22;40337;52.978;6.310;2024-01-30T00:11:24;7.20;99.90
54429;DHT22;40337;52.978;6.310;2024-01-30T00:13:54;7.10;99.90
54429;DHT22;40337;52.978;6.310;2024-01-30T00:16:22;7.10;99.90
54429;DHT22;40337;52.978;6.310;2024-01-30T00:18:59;7.00;99.90
54429;DHT22;40337;52.978;6.310;2024-01-30T00:21:27;7.00;99.90
54429;DHT22;40337;52.978;6.310;2024-01-30T00:23:53;6.90;99.90
54429;DHT22;40337;52.978;6.310;2024-01-30T00:26:18;6.80;99.90
54429;DHT22;40337;52.978;6.310;2024-01-30T00:28:44;6.80;99.90
54429;DHT22;40337;52.978;6.310;2024-01-30T00:31:10;6.70;99.90
54429;DHT22;40337;52.978;6.310;2024-01-30T00:33:39;6.70;99.90
54429;DHT22;40337;52.978;6.310;2024-01-30T00:36:09;6.70;99.90
54429;DHT22;40337;52.978;6.310;2024-01-30T00:38:35;6.60;99.90
54429;DHT22;40337;52.978;6.310;2024-01-30T00:41:01;6.60;99.90
54429;DHT22;40337;52.978;6.310;2024-01-30T00:43:30;6.60;99.90
54429;DHT22;40337;52.978;6.310;2024-01-30T00:45:56;6.60;99.90
54429;DHT22;40337;52.978;6.310;2024-01-30T00:48:23;6.60;99.90
54429;DHT22;40337;52.978;6.310;2024-01-30T00:50:49;6.60;99.90
54429;DHT22;40337;52.978;6.310;2024-01-30T00:53:14;6.50;99.90
54429;DHT22;40337;52.978;6.310;2024-01-30T00:55:40;6.50;99.90
54429;DHT22;40337;52.978;6.310;2024-01-30T00:58:05;6.40;99.90
54429;DHT22;40337;52.978;6.310;2024-01-30T01:00:32;6.40;99.90
54429;DHT22;40337;52.978;6.310;2024-01-30T01:03:01;6.30;99.90
54429;DHT22;40337;52.978;6.310;2024-01-30T01:05:27;6.30;99.90
54429;DHT22;40337;52.978;6.310;2024-01-30T01:07:53;6.40;99.90
54429;DHT22;40337;52.978;6.310;2024-01-30T01:10:19;6.40;99.90
54429;DHT22;40337;52.978;6.310;2024-01-30T01:12:45;6.50;99.90
54429;DHT22;40337;52.978;6.310;2024-01-30T01:15:11;6.50;99.90
54429;DHT22;40337;52.978;6.310;2024-01-30T01:17:38;6.60;99.90
54429;DHT22;40337;52.978;6.310;2024-01-30T01:20:05;6.60;99.90
54429;DHT22;40337;52.978;6.310;2024-01-30T01:22:32;6.40;99.90
54429;DHT22;40337;52.978;6.310;2024-01-30T01:24:58;6.50;99.90
54429;DHT22;40337;52.978;6.310;2024-01-30T01:27:24;6.50;99.90
54429;DHT22;40337;52.978;6.310;2024-01-30T01:29:50;6.50;99.90
54429;DHT22;40337;52.978;6.310;2024-01-30T01:32:16;6.60;99.90
54429;DHT22;40337;52.978;6.310;2024-01-30T01:34:42;6.60;99.90
54429;DHT22;40337;52.978;6.310;2024-01-30T01:37:07;6.60;99.90
54429;DHT22;40337;52.978;6.310;2024-01-30T01:39:33;6.60;99.90
54429;DHT22;40337;52.978;6.310;2024-01-30T01:41:59;6.60;99.90
54429;DHT22;40337;52.978;6.310;2024-01-30T01:44:24;6.60;99.90
54429;DHT22;40337;52.978;6.310;2024-01-30T01:46:51;6.60;99.90
54429;DHT22;40337;52.978;6.310;2024-01-30T01:49:18;6.60;99.90
54429;DHT22;40337;52.978;6.310;2024-01-30T01:51:54;6.70;99.90
54429;DHT22;40337;52.978;6.310;2024-01-30T01:54:22;6.70;99.90
54429;DHT22;40337;52.978;6.310;2024-01-30T01:56:49;6.70;99.90
54429;DHT22;40337;52.978;6.310;2024-01-30T01:59:15;6.60;99.90
54429;DHT22;40337;52.978;6.310;2024-01-30T02:01:41;6.50;99.90
54429;DHT22;40337;52.978;6.310;2024-01-30T02:04:07;6.50;99.90
54429;DHT22;40337;52.978;6.310;2024-01-30T02:06:55;6.50;99.90
54429;DHT22;40337;52.978;6.310;2024-01-30T02:09:20;6.50;99.90
54429;DHT22;40337;52.978;6.310;2024-01-30T02:11:46;6.50;99.90
54429;DHT22;40337;52.978;6.310;2024-01-30T02:14:12;6.40;99.90
54429;DHT22;40337;52.978;6.310;2024-01-30T02:16:37;6.40;99.90
54429;DHT22;40337;52.978;6.310;2024-01-30T02:19:03;6.40;99.90
54429;DHT22;40337;52.978;6.310;2024-01-30T02:21:28;6.40;99.90
54429;DHT22;40337;52.978;6.310;2024-01-30T02:23:54;6.50;99.90
54429;DHT22;40337;52.978;6.310;2024-01-30T02:26:23;6.50;99.90
54429;DHT22;40337;52.978;6.310;2024-01-30T02:28:49;6.40;99.90
54429;DHT22;40337;52.978;6.310;2024-01-30T02:31:15;6.40;99.90
54429;DHT22;40337;52.978;6.310;2024-01-30T02:33:40;6.40;99.90
54429;DHT22;40337;52.978;6.310;2024-01-30T02:36:06;6.40;99.90
54429;DHT22;40337;52.978;6.310;2024-01-30T02:38:31;6.30;99.90
54429;DHT22;40337;52.978;6.310;2024-01-30T02:40:57;6.30;99.90
54429;DHT22;40337;52.978;6.310;2024-01-30T02:43:23;6.10;99.90
54429;DHT22;40337;52.978;6.310;2024-01-30T02:45:48;6.10;99.90
54429;DHT22;40337;52.978;6.310;2024-01-30T02:48:14;6.20;99.90
54429;DHT22;40337;52.978;6.310;2024-01-30T02:50:39;6.20;99.90
54429;DHT22;40337;52.978;6.310;2024-01-30T02:53:05;6.20;99.90
54429;DHT22;40337;52.978;6.310;2024-01-30T02:55:31;6.20;99.90
54429;DHT22;40337;52.978;6.310;2024-01-30T02:57:56;6.30;99.90
54429;DHT22;40337;52.978;6.310;2024-01-30T03:00:23;6.30;99.90
54429;DHT22;40337;52.978;6.310;2024-01-30T03:02:49;6.30;99.90
54429;DHT22;40337;52.978;6.310;2024-01-30T03:05:14;6.50;99.90
54429;DHT22;40337;52.978;6.310;2024-01-30T03:07:40;6.60;99.90
54429;DHT22;40337;52.978;6.310;2024-01-30T03:10:06;6.60;99.90
54429;DHT22;40337;52.978;6.310;2024-01-30T03:12:32;6.60;99.90
54429;DHT22;40337;52.978;6.310;2024-01-30T03:14:58;6.60;99.90
54429;DHT22;40337;52.978;6.310;2024-01-30T03:17:23;6.70;99.90
54429;DHT22;40337;52.978;6.310;2024-01-30T03:19:50;6.80;99.90
54429;DHT22;40337;52.978;6.310;2024-01-30T03:22:15;6.80;99.90
54429;DHT22;40337;52.978;6.310;2024-01-30T03:24:41;6.90;99.90
54429;DHT22;40337;52.978;6.310;2024-01-30T03:27:07;7.00;99.90
54429;DHT22;40337;52.978;6.310;2024-01-30T03:29:33;7.10;99.90
54429;DHT22;40337;52.978;6.310;2024-01-30T03:32:17;7.10;99.90
54429;DHT22;40337;52.978;6.310;2024-01-30T03:34:43;7.00;99.90
54429;DHT22;40337;52.978;6.310;2024-01-30T03:37:08;6.90;99.90
54429;DHT22;40337;52.978;6.310;2024-01-30T03:39:34;6.90;99.90
54429;DHT22;40337;52.978;6.310;2024-01-30T03:42:00;7.00;99.90
54429;DHT22;40337;52.978;6.310;2024-01-30T03:44:25;7.00;99.90
54429;DHT22;40337;52.978;6.310;2024-01-30T03:46:51;7.00;99.90
54429;DHT22;40337;52.978;6.310;2024-01-30T03:49:35;6.90;99.90
54429;DHT22;40337;52.978;6.310;2024-01-30T03:52:01;7.10;99.90
54429;DHT22;40337;52.978;6.310;2024-01-30T03:54:26;7.10;99.90
54429;DHT22;40337;52.978;6.310;2024-01-30T03:56:52;7.10;99.90
54429;DHT22;40337;52.978;6.310;2024-01-30T03:59:17;7.20;99.90
54429;DHT22;40337;52.978;6.310;2024-01-30T04:01:47;7.30;99.90
54429;DHT22;40337;52.978;6.310;2024-01-30T04:04:13;7.40;99.90
54429;DHT22;40337;52.978;6.310;2024-01-30T04:06:38;7.50;99.90
54429;DHT22;40337;52.978;6.310;2024-01-30T04:09:04;7.70;99.90
54429;DHT22;40337;52.978;6.310;2024-01-30T04:11:30;7.60;99.90
54429;DHT22;40337;52.978;6.310;2024-01-30T04:13:55;7.70;99.90
54429;DHT22;40337;52.978;6.310;2024-01-30T04:16:22;7.70;99.90
54429;DHT22;40337;52.978;6.310;2024-01-30T04:18:48;7.80;99.90
54429;DHT22;40337;52.978;6.310;2024-01-30T04:21:13;7.90;99.90
54429;DHT22;40337;52.978;6.310;2024-01-30T04:23:41;7.90;99.90
54429;DHT22;40337;52.978;6.310;2024-01-30T04:26:06;7.90;99.90
54429;DHT22;40337;52.978;6.310;2024-01-30T04:28:32;7.90;99.90
54429;DHT22;40337;52.978;6.310;2024-01-30T04:30:58;7.90;99.90
54429;DHT22;40337;52.978;6.310;2024-01-30T04:33:23;7.90;99.90
54429;DHT22;40337;52.978;6.310;2024-01-30T04:35:49;7.90;99.90
54429;DHT22;40337;52.978;6.310;2024-01-30T04:38:15;7.90;99.90
54429;DHT22;40337;52.978;6.310;2024-01-30T04:40:40;7.90;99.90
54429;DHT22;40337;52.978;6.310;2024-01-30T04:43:06;7.90;99.90
54429;DHT22;40337;52.978;6.310;2024-01-30T04:45:31;7.90;99.90
54429;DHT22;40337;52.978;6.310;2024-01-30T04:47:57;7.90;99.90
54429;DHT22;40337;52.978;6.310;2024-01-30T04:50:23;7.90;99.90
54429;DHT22;40337;52.978;6.310;2024-01-30T04:52:49;7.90;99.90
54429;DHT22;40337;52.978;6.310;2024-01-30T04:55:15;7.80;99.90
54429;DHT22;40337;52.978;6.310;2024-01-30T04:57:40;7.80;99.90
54429;DHT22;40337;52.978;6.310;2024-01-30T05:00:07;7.80;99.90
54429;DHT22;40337;52.978;6.310;2024-01-30T05:02:32;7.90;99.90
54429;DHT22;40337;52.978;6.310;2024-01-30T05:04:58;7.90;99.90
54429;DHT22;40337;52.978;6.310;2024-01-30T05:07:24;7.90;99.90
54429;DHT22;40337;52.978;6.310;2024-01-30T05:09:50;8.00;99.90
54429;DHT22;40337;52.978;6.310;2024-01-30T05:12:16;8.00;99.90
54429;DHT22;40337;52.978;6.310;2024-01-30T05:14:42;7.90;99.90
54429;DHT22;40337;52.978;6.310;2024-01-30T05:17:07;8.00;99.90
54429;DHT22;40337;52.978;6.310;2024-01-30T05:19:35;8.00;99.90
54429;DHT22;40337;52.978;6.310;2024-01-30T05:22:01;8.00;99.90
54429;DHT22;40337;52.978;6.310;2024-01-30T05:24:26;8.00;99.90
54429;DHT22;40337;52.978;6.310;2024-01-30T05:26:52;8.00;99.90
54429;DHT22;40337;52.978;6.310;2024-01-30T05:29:18;8.00;99.90
54429;DHT22;40337;52.978;6.310;2024-01-30T05:31:43;8.00;99.90
54429;DHT22;40337;52.978;6.310;2024-01-30T05:34:09;8.00;99.90
54429;DHT22;40337;52.978;6.310;2024-01-30T05:36:35;8.00;99.90
54429;DHT22;40337;52.978;6.310;2024-01-30T05:39:01;7.90;99.90
54429;DHT22;40337;52.978;6.310;2024-01-30T05:41:26;8.00;99.90
54429;DHT22;40337;52.978;6.310;2024-01-30T05:43:55;8.10;99.90
54429;DHT22;40337;52.978;6.310;2024-01-30T05:46:22;8.10;99.90
54429;DHT22;40337;52.978;6.310;2024-01-30T05:48:47;8.00;99.90
54429;DHT22;40337;52.978;6.310;2024-01-30T05:51:13;8.10;99.90
54429;DHT22;40337;52.978;6.310;2024-01-30T05:53:38;8.00;99.90
54429;DHT22;40337;52.978;6.310;2024-01-30T05:56:06;8.00;99.90
54429;DHT22;40337;52.978;6.310;2024-01-30T05:58:50;8.10;99.90
54429;DHT22;40337;52.978;6.310;2024-01-30T06:01:16;8.00;99.90
54429;DHT22;40337;52.978;6.310;2024-01-30T06:03:42;8.10;99.90
54429;DHT22;40337;52.978;6.310;2024-01-30T06:06:09;8.00;99.90
54429;DHT22;40337;52.978;6.310;2024-01-30T06:08:34;8.00;99.90
54429;DHT22;40337;52.978;6.310;2024-01-30T06:11:00;8.00;99.90
54429;DHT22;40337;52.978;6.310;2024-01-30T06:13:26;8.00;99.90
54429;DHT22;40337;52.978;6.310;2024-01-30T06:15:52;8.00;99.90
54429;DHT22;40337;52.978;6.310;2024-01-30T06:18:18;8.00;99.90
54429;DHT22;40337;52.978;6.310;2024-01-30T06:20:44;8.00;99.90
54429;DHT22;40337;52.978;6.310;2024-01-30T06:23:09;8.00;99.90
54429;DHT22;40337;52.978;6.310;2024-01-30T06:25:35;8.00;99.90
54429;DHT22;40337;52.978;6.310;2024-01-30T06:28:01;8.00;99.90
54429;DHT22;40337;52.978;6.310;2024-01-30T06:30:26;8.00;99.90
54429;DHT22;40337;52.978;6.310;2024-01-30T06:32:52;8.00;99.90
54429;DHT22;40337;52.978;6.310;2024-01-30T06:35:18;8.10;99.90
54429;DHT22;40337;52.978;6.310;2024-01-30T06:37:43;8.10;99.90
54429;DHT22;40337;52.978;6.310;2024-01-30T06:40:09;8.20;99.90
54429;DHT22;40337;52.978;6.310;2024-01-30T06:42:35;8.20;99.90
54429;DHT22;40337;52.978;6.310;2024-01-30T06:45:01;8.20;99.90
54429;DHT22;40337;52.978;6.310;2024-01-30T06:47:26;8.20;99.90
54429;DHT22;40337;52.978;6.310;2024-01-30T06:49:52;8.30;99.90
54429;DHT22;40337;52.978;6.310;2024-01-30T06:52:18;8.30;99.90
54429;DHT22;40337;52.978;6.310;2024-01-30T06:54:43;8.30;99.90
54429;DHT22;40337;52.978;6.310;2024-01-30T06:57:09;8.30;99.90
54429;DHT22;40337;52.978;6.310;2024-01-30T06:59:56;8.40;99.90
54429;DHT22;40337;52.978;6.310;2024-01-30T07:02:21;8.40;99.90
54429;DHT22;40337;52.978;6.310;2024-01-30T07:04:47;8.40;99.90
54429;DHT22;40337;52.978;6.310;2024-01-30T07:07:13;8.40;99.90
54429;DHT22;40337;52.978;6.310;2024-01-30T07:09:40;8.40;99.90
54429;DHT22;40337;52.978;6.310;2024-01-30T07:12:06;8.40;99.90
54429;DHT22;40337;52.978;6.310;2024-01-30T07:14:32;8.40;99.90
54429;DHT22;40337;52.978;6.310;2024-01-30T07:16:58;8.50;99.90
54429;DHT22;40337;52.978;6.310;2024-01-30T07:19:24;8.50;99.90
54429;DHT22;40337;52.978;6.310;2024-01-30T07:21:49;8.50;99.90
54429;DHT22;40337;52.978;6.310;2024-01-30T07:24:15;8.50;99.90
54429;DHT22;40337;52.978;6.310;2024-01-30T07:26:40;8.50;99.90
54429;DHT22;40337;52.978;6.310;2024-01-30T07:29:06;8.50;99.90
54429;DHT22;40337;52.978;6.310;2024-01-30T07:31:32;8.50;99.90
54429;DHT22;40337;52.978;6.310;2024-01-30T07:33:57;8.60;99.90
54429;DHT22;40337;52.978;6.310;2024-01-30T07:36:23;8.60;99.90
54429;DHT22;40337;52.978;6.310;2024-01-30T07:38:49;8.60;99.90
54429;DHT22;40337;52.978;6.310;2024-01-30T07:41:14;8.60;99.90
54429;DHT22;40337;52.978;6.310;2024-01-30T07:43:40;8.70;99.90
54429;DHT22;40337;52.978;6.310;2024-01-30T07:46:05;8.70;99.90
54429;DHT22;40337;52.978;6.310;2024-01-30T07:48:33;8.70;99.90
54429;DHT22;40337;52.978;6.310;2024-01-30T07:50:59;8.70;99.90
54429;DHT22;40337;52.978;6.310;2024-01-30T07:53:25;8.70;99.90
54429;DHT22;40337;52.978;6.310;2024-01-30T07:55:52;8.70;99.90
54429;DHT22;40337;52.978;6.310;2024-01-30T07:58:18;8.80;99.90
54429;DHT22;40337;52.978;6.310;2024-01-30T08:00:44;8.80;99.90
54429;DHT22;40337;52.978;6.310;2024-01-30T08:03:10;8.90;99.90
54429;DHT22;40337;52.978;6.310;2024-01-30T08:05:36;8.90;99.90
54429;DHT22;40337;52.978;6.310;2024-01-30T08:08:02;8.90;99.90
54429;DHT22;40337;52.978;6.310;2024-01-30T08:10:27;8.90;99.90
54429;DHT22;40337;52.978;6.310;2024-01-30T08:12:53;9.00;99.90
54429;DHT22;40337;52.978;6.310;2024-01-30T08:15:18;9.00;99.90
54429;DHT22;40337;52.978;6.310;2024-01-30T08:17:44;9.00;99.90
54429;DHT22;40337;52.978;6.310;2024-01-30T08:20:11;9.10;99.90
54429;DHT22;40337;52.978;6.310;2024-01-30T08:22:40;9.10;99.90
54429;DHT22;40337;52.978;6.310;2024-01-30T08:25:06;9.10;99.90
54429;DHT22;40337;52.978;6.310;2024-01-30T08:27:33;9.10;99.90
54429;DHT22;40337;52.978;6.310;2024-01-30T08:30:01;9.20;99.90
54429;DHT22;40337;52.978;6.310;2024-01-30T08:32:27;9.20;99.90
54429;DHT22;40337;52.978;6.310;2024-01-30T08:34:52;9.20;99.90
54429;DHT22;40337;52.978;6.310;2024-01-30T08:37:18;9.20;99.90
54429;DHT22;40337;52.978;6.310;2024-01-30T08:39:44;9.30;99.90
54429;DHT22;40337;52.978;6.310;2024-01-30T08:42:10;9.30;99.90
54429;DHT22;40337;52.978;6.310;2024-01-30T08:44:35;9.30;99.90
54429;DHT22;40337;52.978;6.310;2024-01-30T08:47:01;9.30;99.90
54429;DHT22;40337;52.978;6.310;2024-01-30T08:49:27;9.40;99.90
54429;DHT22;40337;52.978;6.310;2024-01-30T08:51:53;9.40;99.90
54429;DHT22;40337;52.978;6.310;2024-01-30T08:54:19;9.50;99.90
54429;DHT22;40337;52.978;6.310;2024-01-30T08:56:44;9.50;99.90
54429;DHT22;40337;52.978;6.310;2024-01-30T08:59:10;9.50;99.90
54429;DHT22;40337;52.978;6.310;2024-01-30T09:01:36;9.60;99.90
54429;DHT22;40337;52.978;6.310;2024-01-30T09:04:02;9.60;99.90
54429;DHT22;40337;52.978;6.310;2024-01-30T09:06:28;9.60;99.90
54429;DHT22;40337;52.978;6.310;2024-01-30T09:08:54;9.70;99.90
54429;DHT22;40337;52.978;6.310;2024-01-30T09:11:20;9.70;99.90
54429;DHT22;40337;52.978;6.310;2024-01-30T09:13:46;9.70;99.90
54429;DHT22;40337;52.978;6.310;2024-01-30T09:16:11;9.80;99.90
54429;DHT22;40337;52.978;6.310;2024-01-30T09:18:37;9.80;99.90
54429;DHT22;40337;52.978;6.310;2024-01-30T09:21:03;9.90;99.90
54429;DHT22;40337;52.978;6.310;2024-01-30T09:23:28;9.90;99.90
54429;DHT22;40337;52.978;6.310;2024-01-30T09:25:54;10.00;99.90
54429;DHT22;40337;52.978;6.310;2024-01-30T09:28:20;10.00;99.90
54429;DHT22;40337;52.978;6.310;2024-01-30T09:30:46;10.00;99.90
54429;DHT22;40337;52.978;6.310;2024-01-30T09:33:11;10.10;99.90
54429;DHT22;40337;52.978;6.310;2024-01-30T09:35:37;10.00;99.90
54429;DHT22;40337;52.978;6.310;2024-01-30T09:38:03;10.10;99.90
54429;DHT22;40337;52.978;6.310;2024-01-30T09:40:28;10.10;99.90
54429;DHT22;40337;52.978;6.310;2024-01-30T09:42:54;10.10;99.90
54429;DHT22;40337;52.978;6.310;2024-01-30T09:45:24;10.10;99.90
54429;DHT22;40337;52.978;6.310;2024-01-30T09:47:50;10.10;99.90
54429;DHT22;40337;52.978;6.310;2024-01-30T09:50:17;10.10;99.90
54429;DHT22;40337;52.978;6.310;2024-01-30T09:52:46;10.10;99.90
54429;DHT22;40337;52.978;6.310;2024-01-30T09:55:12;10.20;99.90
54429;DHT22;40337;52.978;6.310;2024-01-30T09:57:38;10.20;99.90
54429;DHT22;40337;52.978;6.310;2024-01-30T10:00:05;10.30;99.90
54429;DHT22;40337;52.978;6.310;2024-01-30T10:02:35;10.30;99.90
54429;DHT22;40337;52.978;6.310;2024-01-30T10:05:01;10.40;99.90
54429;DHT22;40337;52.978;6.310;2024-01-30T10:07:27;10.60;99.90
54429;DHT22;40337;52.978;6.310;2024-01-30T10:09:53;10.60;99.90
54429;DHT22;40337;52.978;6.310;2024-01-30T10:12:20;10.70;99.90
54429;DHT22;40337;52.978;6.310;2024-01-30T10:14:46;10.70;99.90
54429;DHT22;40337;52.978;6.310;2024-01-30T10:17:12;10.60;99.90
54429;DHT22;40337;52.978;6.310;2024-01-30T10:19:39;10.60;99.90
54429;DHT22;40337;52.978;6.310;2024-01-30T10:22:05;10.60;99.90
54429;DHT22;40337;52.978;6.310;2024-01-30T10:24:33;10.60;99.90
54429;DHT22;40337;52.978;6.310;2024-01-30T10:26:58;10.60;99.90
54429;DHT22;40337;52.978;6.310;2024-01-30T10:29:24;10.60;99.90
54429;DHT22;40337;52.978;6.310;2024-01-30T10:32:03;10.60;99.90
54429;DHT22;40337;52.978;6.310;2024-01-30T10:34:30;10.60;99.90
54429;DHT22;40337;52.978;6.310;2024-01-30T10:37:16;10.50;99.90
54429;DHT22;40337;52.978;6.310;2024-01-30T10:39:44;10.60;99.90
54429;DHT22;40337;52.978;6.310;2024-01-30T10:42:15;10.70;99.90
54429;DHT22;40337;52.978;6.310;2024-01-30T10:45:08;10.70;99.90
54429;DHT22;40337;52.978;6.310;2024-01-30T10:47:35;10.70;99.90
54429;DHT22;40337;52.978;6.310;2024-01-30T10:50:04;10.80;99.90
54429;DHT22;40337;52.978;6.310;2024-01-30T10:52:32;10.90;99.90
54429;DHT22;40337;52.978;6.310;2024-01-30T10:54:58;10.90;99.90
54429;DHT22;40337;52.978;6.310;2024-01-30T10:57:26;11.00;99.90
54429;DHT22;40337;52.978;6.310;2024-01-30T10:59:57;11.00;99.90
54429;DHT22;40337;52.978;6.310;2024-01-30T11:02:24;11.00;99.90
54429;DHT22;40337;52.978;6.310;2024-01-30T11:04:58;11.00;99.90
54429;DHT22;40337;52.978;6.310;2024-01-30T11:07:26;11.00;99.90
54429;DHT22;40337;52.978;6.310;2024-01-30T11:09:54;11.00;99.90
54429;DHT22;40337;52.978;6.310;2024-01-30T11:12:29;11.10;99.90
54429;DHT22;40337;52.978;6.310;2024-01-30T11:15:08;11.10;99.90
54429;DHT22;40337;52.978;6.310;2024-01-30T11:17:50;11.10;99.90
54429;DHT22;40337;52.978;6.310;2024-01-30T11:20:27;11.10;99.90
54429;DHT22;40337;52.978;6.310;2024-01-30T11:22:54;11.10;99.90
54429;DHT22;40337;52.978;6.310;2024-01-30T11:25:21;11.00;99.90
54429;DHT22;40337;52.978;6.310;2024-01-30T11:27:49;10.90;99.90
54429;DHT22;40337;52.978;6.310;2024-01-30T11:30:30;10.80;99.90
54429;DHT22;40337;52.978;6.310;2024-01-30T11:33:02;10.70;99.90
54429;DHT22;40337;52.978;6.310;2024-01-30T11:35:33;10.70;99.90
54429;DHT22;40337;52.978;6.310;2024-01-30T11:37:59;10.60;99.90
54429;DHT22;40337;52.978;6.310;2024-01-30T11:40:30;10.60;99.90
54429;DHT22;40337;52.978;6.310;2024-01-30T11:42:57;10.50;99.90
54429;DHT22;40337;52.978;6.310;2024-01-30T11:45:23;10.50;99.90
54429;DHT22;40337;52.978;6.310;2024-01-30T11:47:49;10.50;99.90
54429;DHT22;40337;52.978;6.310;2024-01-30T11:50:15;10.40;99.90
54429;DHT22;40337;52.978;6.310;2024-01-30T11:52:41;10.40;99.90
54429;DHT22;40337;52.978;6.310;2024-01-30T11:55:09;10.40;99.90
54429;DHT22;40337;52.978;6.310;2024-01-30T11:57:34;10.30;99.90
54429;DHT22;40337;52.978;6.310;2024-01-30T12:00:04;10.30;99.90
54429;DHT22;40337;52.978;6.310;2024-01-30T12:02:55;10.20;99.90
54429;DHT22;40337;52.978;6.310;2024-01-30T12:05:41;10.20;99.90
54429;DHT22;40337;52.978;6.310;2024-01-30T12:08:15;10.20;99.90
54429;DHT22;40337;52.978;6.310;2024-01-30T12:10:41;10.30;99.90
54429;DHT22;40337;52.978;6.310;2024-01-30T12:13:07;10.30;99.90
54429;DHT22;40337;52.978;6.310;2024-01-30T12:15:32;10.40;99.90
54429;DHT22;40337;52.978;6.310;2024-01-30T12:18:06;10.50;99.90
54429;DHT22;40337;52.978;6.310;2024-01-30T12:20:32;10.60;99.90
54429;DHT22;40337;52.978;6.310;2024-01-30T12:22:57;10.60;99.90
54429;DHT22;40337;52.978;6.310;2024-01-30T12:25:23;10.60;99.90
54429;DHT22;40337;52.978;6.310;2024-01-30T12:27:50;10.50;99.90
54429;DHT22;40337;52.978;6.310;2024-01-30T12:30:17;10.50;99.90
54429;DHT22;40337;52.978;6.310;2024-01-30T12:32:44;10.40;99.90
54429;DHT22;40337;52.978;6.310;2024-01-30T12:35:11;10.40;99.90
54429;DHT22;40337;52.978;6.310;2024-01-30T12:37:38;10.30;99.90
54429;DHT22;40337;52.978;6.310;2024-01-30T12:40:04;10.30;99.90
54429;DHT22;40337;52.978;6.310;2024-01-30T12:42:31;10.30;99.90
54429;DHT22;40337;52.978;6.310;2024-01-30T12:44:57;10.20;99.90
54429;DHT22;40337;52.978;6.310;2024-01-30T12:47:24;10.30;99.90
54429;DHT22;40337;52.978;6.310;2024-01-30T12:49:49;10.30;99.90
54429;DHT22;40337;52.978;6.310;2024-01-30T12:52:19;10.30;99.90
54429;DHT22;40337;52.978;6.310;2024-01-30T12:54:45;10.30;99.90
54429;DHT22;40337;52.978;6.310;2024-01-30T12:57:10;10.40;99.90
54429;DHT22;40337;52.978;6.310;2024-01-30T12:59:36;10.40;99.90
54429;DHT22;40337;52.978;6.310;2024-01-30T13:02:02;10.70;99.90
54429;DHT22;40337;52.978;6.310;2024-01-30T13:04:29;11.20;99.90
54429;DHT22;40337;52.978;6.310;2024-01-30T13:06:54;11.70;99.90
54429;DHT22;40337;52.978;6.310;2024-01-30T13:09:20;11.60;99.90
54429;DHT22;40337;52.978;6.310;2024-01-30T13:11:46;11.50;99.90
54429;DHT22;40337;52.978;6.310;2024-01-30T13:14:11;11.30;99.90
54429;DHT22;40337;52.978;6.310;2024-01-30T13:16:37;11.00;99.90
54429;DHT22;40337;52.978;6.310;2024-01-30T13:19:03;10.80;99.90
54429;DHT22;40337;52.978;6.310;2024-01-30T13:21:29;10.90;99.90
54429;DHT22;40337;52.978;6.310;2024-01-30T13:23:55;10.70;99.90
54429;DHT22;40337;52.978;6.310;2024-01-30T13:26:20;10.70;99.90
54429;DHT22;40337;52.978;6.310;2024-01-30T13:28:46;10.60;99.90
54429;DHT22;40337;52.978;6.310;2024-01-30T13:31:13;10.50;99.90
54429;DHT22;40337;52.978;6.310;2024-01-30T13:33:40;10.50;99.90
54429;DHT22;40337;52.978;6.310;2024-01-30T13:36:09;10.40;99.90
54429;DHT22;40337;52.978;6.310;2024-01-30T13:38:35;10.40;99.90
54429;DHT22;40337;52.978;6.310;2024-01-30T13:41:01;10.40;99.90
54429;DHT22;40337;52.978;6.310;2024-01-30T13:43:27;10.40;99.90
54429;DHT22;40337;52.978;6.310;2024-01-30T13:45:52;10.30;99.90
54429;DHT22;40337;52.978;6.310;2024-01-30T13:48:19;10.30;99.90
54429;DHT22;40337;52.978;6.310;2024-01-30T13:50:44;10.30;99.90
54429;DHT22;40337;52.978;6.310;2024-01-30T13:53:10;10.20;99.90
54429;DHT22;40337;52.978;6.310;2024-01-30T13:55:36;10.20;99.90
54429;DHT22;40337;52.978;6.310;2024-01-30T13:58:01;10.10;99.90
54429;DHT22;40337;52.978;6.310;2024-01-30T14:00:27;10.10;99.90
54429;DHT22;40337;52.978;6.310;2024-01-30T14:02:53;10.00;99.90
54429;DHT22;40337;52.978;6.310;2024-01-30T14:05:23;10.00;99.90
54429;DHT22;40337;52.978;6.310;2024-01-30T14:07:50;9.90;99.90
54429;DHT22;40337;52.978;6.310;2024-01-30T14:10:16;9.90;99.90
54429;DHT22;40337;52.978;6.310;2024-01-30T14:12:42;9.80;99.90
54429;DHT22;40337;52.978;6.310;2024-01-30T14:15:13;9.80;99.90
54429;DHT22;40337;52.978;6.310;2024-01-30T14:17:40;9.80;99.90
54429;DHT22;40337;52.978;6.310;2024-01-30T14:20:06;9.80;99.90
54429;DHT22;40337;52.978;6.310;2024-01-30T14:22:33;9.80;99.90
54429;DHT22;40337;52.978;6.310;2024-01-30T14:25:00;9.80;99.90
54429;DHT22;40337;52.978;6.310;2024-01-30T14:27:28;9.80;99.90
54429;DHT22;40337;52.978;6.310;2024-01-30T14:29:54;9.70;99.90
54429;DHT22;40337;52.978;6.310;2024-01-30T14:32:20;9.70;99.90
54429;DHT22;40337;52.978;6.310;2024-01-30T14:34:45;9.70;99.90
54429;DHT22;40337;52.978;6.310;2024-01-30T14:37:11;9.60;99.90
54429;DHT22;40337;52.978;6.310;2024-01-30T14:39:37;9.60;99.90
54429;DHT22;40337;52.978;6.310;2024-01-30T14:42:03;9.60;99.90
54429;DHT22;40337;52.978;6.310;2024-01-30T14:44:29;9.60;99.90
54429;DHT22;40337;52.978;6.310;2024-01-30T14:46:56;9.60;99.90
54429;DHT22;40337;52.978;6.310;2024-01-30T14:49:22;9.60;99.90
54429;DHT22;40337;52.978;6.310;2024-01-30T14:51:47;9.50;99.90
54429;DHT22;40337;52.978;6.310;2024-01-30T14:54:13;9.50;99.90
54429;DHT22;40337;52.978;6.310;2024-01-30T14:56:39;9.50;99.90
54429;DHT22;40337;52.978;6.310;2024-01-30T14:59:04;9.40;99.90
54429;DHT22;40337;52.978;6.310;2024-01-30T15:01:30;9.50;99.90
54429;DHT22;40337;52.978;6.310;2024-01-30T15:03:56;9.50;99.90
54429;DHT22;40337;52.978;6.310;2024-01-30T15:06:21;9.50;99.90
54429;DHT22;40337;52.978;6.310;2024-01-30T15:08:50;9.50;99.90
54429;DHT22;40337;52.978;6.310;2024-01-30T15:11:16;9.50;99.90
54429;DHT22;40337;52.978;6.310;2024-01-30T15:13:41;9.50;99.90
54429;DHT22;40337;52.978;6.310;2024-01-30T15:16:07;9.40;99.90
54429;DHT22;40337;52.978;6.310;2024-01-30T15:18:33;9.50;99.90
54429;DHT22;40337;52.978;6.310;2024-01-30T15:20:59;9.50;99.90
54429;DHT22;40337;52.978;6.310;2024-01-30T15:23:24;9.50;99.90
54429;DHT22;40337;52.978;6.310;2024-01-30T15:25:50;9.40;99.90
54429;DHT22;40337;52.978;6.310;2024-01-30T15:28:16;9.40;99.90
54429;DHT22;40337;52.978;6.310;2024-01-30T15:30:42;9.50;99.90
54429;DHT22;40337;52.978;6.310;2024-01-30T15:33:09;9.40;99.90
54429;DHT22;40337;52.978;6.310;2024-01-30T15:35:35;9.40;99.90
54429;DHT22;40337;52.978;6.310;2024-01-30T15:38:00;9.40;99.90
54429;DHT22;40337;52.978;6.310;2024-01-30T15:40:26;9.40;99.90